createdAt,value
2018-01-08T00:00:32.639Z,-1.90
2018-01-08T00:03:06.376Z,-1.90
2018-01-08T00:05:40.708Z,-1.90
2018-01-08T00:08:14.471Z,-1.90
2018-01-08T00:10:48.223Z,-1.90
2018-01-08T00:13:22.716Z,-1.90
2018-01-08T00:15:56.346Z,-2.00
2018-01-08T00:18:30.085Z,-1.90
2018-01-08T00:21:04.481Z,-1.90
2018-01-08T00:23:39.044Z,-1.90
2018-01-08T00:26:13.400Z,-1.90
2018-01-08T00:28:47.921Z,-1.90
2018-01-08T00:31:21.577Z,-1.90
2018-01-08T00:33:56.057Z,-2.00
2018-01-08T00:36:30.462Z,-2.00
2018-01-08T00:39:04.174Z,-2.00
2018-01-08T00:41:37.863Z,-2.00
2018-01-08T00:44:12.825Z,-2.00
2018-01-08T00:46:46.375Z,-2.00
2018-01-08T00:49:20.750Z,-2.00
2018-01-08T00:51:54.503Z,-2.00
2018-01-08T00:54:28.251Z,-2.00
2018-01-08T00:57:01.978Z,-2.00
2018-01-08T00:59:35.552Z,-2.00
2018-01-08T01:02:09.962Z,-2.10
2018-01-08T01:04:43.583Z,-2.10
2018-01-08T01:07:17.181Z,-2.10
2018-01-08T01:09:50.735Z,-2.10
2018-01-08T01:12:24.343Z,-2.10
2018-01-08T01:14:57.900Z,-2.10
2018-01-08T01:17:32.356Z,-2.10
2018-01-08T01:20:06.073Z,-2.10
2018-01-08T01:22:40.605Z,-2.10
2018-01-08T01:25:14.252Z,-2.20
2018-01-08T01:27:48.946Z,-2.10
2018-01-08T01:30:22.606Z,-2.10
2018-01-08T01:32:56.314Z,-2.20
2018-01-08T01:35:30.061Z,-2.20
2018-01-08T01:38:03.816Z,-2.20
2018-01-08T01:40:38.309Z,-2.20
2018-01-08T01:43:11.992Z,-2.20
2018-01-08T01:45:45.720Z,-2.20
2018-01-08T01:48:19.472Z,-2.20
2018-01-08T01:50:54.035Z,-2.20
2018-01-08T01:53:29.016Z,-2.20
2018-01-08T01:56:02.786Z,-2.20
2018-01-08T01:58:37.269Z,-2.30
2018-01-08T02:01:10.900Z,-2.30
2018-01-08T02:03:44.632Z,-2.30
2018-01-08T02:06:18.233Z,-2.20
2018-01-08T02:08:52.791Z,-2.30
2018-01-08T02:11:26.435Z,-2.30
2018-01-08T02:14:00.642Z,-2.30
2018-01-08T02:16:34.306Z,-2.30
2018-01-08T02:19:08.064Z,-2.30
2018-01-08T02:21:42.499Z,-2.30
2018-01-08T02:24:16.034Z,-2.30
2018-01-08T02:26:49.808Z,-2.30
2018-01-08T02:29:24.362Z,-2.30
2018-01-08T02:31:58.204Z,-2.30
2018-01-08T02:34:31.872Z,-2.30
2018-01-08T02:37:06.230Z,-2.30
2018-01-08T02:39:39.945Z,-2.30
2018-01-08T02:42:13.701Z,-2.20
2018-01-08T02:44:47.461Z,-2.20
2018-01-08T02:47:21.091Z,-2.20
2018-01-08T02:49:54.747Z,-2.20
2018-01-08T02:52:28.363Z,-2.10
2018-01-08T02:55:02.121Z,-2.10
2018-01-08T02:57:35.772Z,-2.10
2018-01-08T03:00:09.480Z,-2.10
2018-01-08T03:02:43.280Z,-2.10
2018-01-08T03:05:16.850Z,-2.00
2018-01-08T03:07:50.737Z,-2.00
2018-01-08T03:10:24.503Z,-1.90
2018-01-08T03:12:58.244Z,-1.90
2018-01-08T03:15:31.855Z,-1.80
2018-01-08T03:18:05.487Z,-1.80
2018-01-08T03:20:39.052Z,-1.70
2018-01-08T03:23:13.610Z,-1.60
2018-01-08T03:25:47.333Z,-1.60
2018-01-08T03:28:21.952Z,-1.60
2018-01-08T03:30:55.645Z,-1.60
2018-01-08T03:33:29.317Z,-1.50
2018-01-08T03:36:04.031Z,-1.50
2018-01-08T03:38:38.366Z,-1.50
2018-01-08T03:41:12.734Z,-1.50
2018-01-08T03:43:47.109Z,-1.40
2018-01-08T03:46:21.714Z,-1.40
2018-01-08T03:48:56.135Z,-1.30
2018-01-08T03:51:30.453Z,-1.40
2018-01-08T03:54:04.040Z,-1.40
2018-01-08T03:56:39.496Z,-1.30
2018-01-08T03:59:14.028Z,-1.30
2018-01-08T04:01:47.691Z,-1.20
2018-01-08T04:04:22.336Z,-1.30
2018-01-08T04:06:57.454Z,-1.20
2018-01-08T04:09:31.275Z,-1.20
2018-01-08T04:12:05.017Z,-1.20
2018-01-08T04:14:38.720Z,-1.20
2018-01-08T04:17:13.045Z,-1.20
2018-01-08T04:19:47.569Z,-1.20
2018-01-08T04:22:21.268Z,-1.20
2018-01-08T04:24:54.975Z,-1.20
2018-01-08T04:27:28.786Z,-1.10
2018-01-08T04:30:02.544Z,-1.10
2018-01-08T04:32:36.321Z,-1.10
2018-01-08T04:35:10.089Z,-1.20
2018-01-08T04:37:45.916Z,-1.20
2018-01-08T04:40:20.264Z,-1.20
2018-01-08T04:42:54.891Z,-1.20
2018-01-08T04:45:28.530Z,-1.20
2018-01-08T04:48:02.295Z,-1.10
2018-01-08T04:50:36.064Z,-1.20
2018-01-08T04:53:10.430Z,-1.20
2018-01-08T04:55:44.018Z,-1.20
2018-01-08T04:58:17.729Z,-1.10
2018-01-08T05:00:51.877Z,-1.20
2018-01-08T05:03:25.440Z,-1.20
2018-01-08T05:05:59.220Z,-1.20
2018-01-08T05:08:33.065Z,-1.20
2018-01-08T05:11:06.662Z,-1.20
2018-01-08T05:13:40.190Z,-1.30
2018-01-08T05:16:13.852Z,-1.30
2018-01-08T05:18:48.723Z,-1.30
2018-01-08T05:21:22.467Z,-1.30
2018-01-08T05:23:57.496Z,-1.40
2018-01-08T05:26:32.021Z,-1.40
2018-01-08T05:29:05.674Z,-1.30
2018-01-08T05:31:39.400Z,-1.30
2018-01-08T05:34:13.269Z,-1.40
2018-01-08T05:36:47.044Z,-1.40
2018-01-08T05:39:20.785Z,-1.30
2018-01-08T05:41:54.566Z,-1.30
2018-01-08T05:44:29.073Z,-1.30
2018-01-08T05:47:02.664Z,-1.30
2018-01-08T05:49:36.279Z,-1.30
2018-01-08T05:52:10.351Z,-1.30
2018-01-08T05:54:44.064Z,-1.30
2018-01-08T05:57:17.884Z,-1.40
2018-01-08T05:59:51.475Z,-1.40
2018-01-08T06:02:25.133Z,-1.40
2018-01-08T06:05:01.244Z,-1.40
2018-01-08T06:07:34.807Z,-1.40
2018-01-08T06:10:08.507Z,-1.40
2018-01-08T06:12:42.282Z,-1.40
2018-01-08T06:15:20.027Z,-1.40
2018-01-08T06:17:54.124Z,-1.40
2018-01-08T06:23:07.363Z,-1.50
2018-01-08T06:25:41.067Z,-1.50
2018-01-08T06:28:14.790Z,-1.40
2018-01-08T06:30:48.576Z,-1.40
2018-01-08T06:33:22.188Z,-1.40
2018-01-08T06:35:55.887Z,-1.40
2018-01-08T06:38:30.468Z,-1.40
2018-01-08T06:41:04.109Z,-1.50
2018-01-08T06:43:37.720Z,-1.40
2018-01-08T06:46:11.455Z,-1.30
2018-01-08T06:48:45.146Z,-1.30
2018-01-08T06:51:19.675Z,-1.40
2018-01-08T06:53:53.352Z,-1.40
2018-01-08T06:56:27.289Z,-1.40
2018-01-08T06:59:01.259Z,-1.40
2018-01-08T07:01:35.044Z,-1.40
2018-01-08T07:04:08.801Z,-1.40
2018-01-08T07:06:42.516Z,-1.50
2018-01-08T07:09:16.279Z,-1.50
2018-01-08T07:11:50.056Z,-1.60
2018-01-08T07:14:23.850Z,-1.70
2018-01-08T07:16:57.876Z,-1.70
2018-01-08T07:19:31.677Z,-1.80
2018-01-08T07:22:05.358Z,-1.80
2018-01-08T07:24:39.130Z,-1.90
2018-01-08T07:27:12.873Z,-1.90
2018-01-08T07:29:46.611Z,-2.00
2018-01-08T07:32:20.369Z,-2.00
2018-01-08T07:34:54.114Z,-2.00
2018-01-08T07:37:27.712Z,-2.00
2018-01-08T07:40:02.039Z,-2.10
2018-01-08T07:42:36.570Z,-2.10
2018-01-08T07:45:10.197Z,-2.10
2018-01-08T07:47:45.062Z,-2.10
2018-01-08T07:50:20.617Z,-2.10
2018-01-08T07:52:55.140Z,-2.20
2018-01-08T07:55:28.760Z,-2.20
2018-01-08T07:58:03.360Z,-2.20
2018-01-08T08:00:37.131Z,-2.20
2018-01-08T08:03:10.893Z,-2.10
2018-01-08T08:05:44.600Z,-2.20
2018-01-08T08:08:19.101Z,-2.10
2018-01-08T08:10:53.238Z,-2.10
2018-01-08T08:13:27.759Z,-2.10
2018-01-08T08:16:02.902Z,-2.10
2018-01-08T08:18:38.061Z,-2.10
2018-01-08T08:21:11.772Z,-2.10
2018-01-08T08:23:45.440Z,-2.10
2018-01-08T08:26:19.979Z,-2.00
2018-01-08T08:28:53.630Z,-2.00
2018-01-08T08:31:27.358Z,-1.90
2018-01-08T08:34:01.074Z,-1.90
2018-01-08T08:36:34.858Z,-1.80
2018-01-08T08:39:08.560Z,-1.90
2018-01-08T08:41:44.128Z,-1.80
2018-01-08T08:44:17.669Z,-1.90
2018-01-08T08:46:53.369Z,-1.90
2018-01-08T08:49:28.447Z,-1.90
2018-01-08T08:52:02.046Z,-1.90
2018-01-08T08:54:36.539Z,-1.80
2018-01-08T08:57:10.328Z,-1.90
2018-01-08T08:59:44.064Z,-1.90
2018-01-08T09:02:17.736Z,-1.80
2018-01-08T09:04:52.063Z,-1.80
2018-01-08T09:07:25.820Z,-1.80
2018-01-08T09:09:59.575Z,-1.70
2018-01-08T09:12:33.190Z,-1.70
2018-01-08T09:15:07.292Z,-1.70
2018-01-08T09:17:40.988Z,-1.70
2018-01-08T09:20:14.642Z,-1.60
2018-01-08T09:22:49.130Z,-1.50
2018-01-08T09:25:22.828Z,-1.60
2018-01-08T09:27:56.440Z,-1.60
2018-01-08T09:30:30.224Z,-1.50
2018-01-08T09:33:04.908Z,-1.50
2018-01-08T09:35:38.484Z,-1.50
2018-01-08T09:38:12.248Z,-1.40
2018-01-08T09:40:46.011Z,-1.40
2018-01-08T09:43:19.686Z,-1.30
2018-01-08T09:45:53.286Z,-1.30
2018-01-08T09:48:27.051Z,-1.30
2018-01-08T09:51:00.643Z,-1.30
2018-01-08T09:53:34.396Z,-1.20
2018-01-08T09:56:08.133Z,-1.20
2018-01-08T09:58:41.969Z,-1.20
2018-01-08T10:01:16.801Z,-1.20
2018-01-08T10:04:02.233Z,-1.10
2018-01-08T10:06:48.592Z,-1.00
2018-01-08T10:09:34.826Z,-0.90
2018-01-08T10:12:20.340Z,-1.00
2018-01-08T10:15:05.884Z,-0.90
2018-01-08T10:17:51.400Z,-0.90
2018-01-08T10:20:25.110Z,-0.80
2018-01-08T10:22:58.808Z,-0.70
2018-01-08T10:25:32.548Z,-0.70
2018-01-08T10:28:06.320Z,-0.60
2018-01-08T10:30:40.104Z,-0.60
2018-01-08T10:33:13.900Z,-0.60
2018-01-08T10:35:47.569Z,-0.50
2018-01-08T10:38:21.294Z,-0.50
2018-01-08T10:40:54.592Z,-0.50
2018-01-08T10:43:33.702Z,-0.40
2018-01-08T10:46:13.168Z,-0.40
2018-01-08T10:48:52.601Z,-0.30
2018-01-08T10:51:33.062Z,-0.20
2018-01-08T10:54:06.636Z,-0.10
2018-01-08T10:56:40.636Z,-0.10
2018-01-08T10:59:14.357Z,0.00
2018-01-08T11:01:54.772Z,0.00
2018-01-08T11:04:28.560Z,0.10
2018-01-08T11:07:02.324Z,0.10
2018-01-08T11:09:36.102Z,0.10
2018-01-08T11:12:09.811Z,0.10
2018-01-08T11:14:44.696Z,0.20
2018-01-08T11:17:18.342Z,0.20
2018-01-08T11:19:51.996Z,0.30
2018-01-08T11:22:25.718Z,0.30
2018-01-08T11:25:00.209Z,0.40
2018-01-08T11:27:33.912Z,0.40
2018-01-08T11:30:08.589Z,0.40
2018-01-08T11:32:42.245Z,0.40
2018-01-08T11:35:15.993Z,0.40
2018-01-08T11:37:49.740Z,0.40
2018-01-08T11:40:23.316Z,0.40
2018-01-08T11:42:57.831Z,0.40
2018-01-08T11:45:31.368Z,0.40
2018-01-08T11:48:05.038Z,0.40
2018-01-08T11:50:38.897Z,0.40
2018-01-08T11:53:12.477Z,0.40
2018-01-08T11:55:47.104Z,0.40
2018-01-08T11:58:22.246Z,0.40
2018-01-08T12:00:55.980Z,0.50
2018-01-08T12:03:29.688Z,0.50
2018-01-08T12:06:03.456Z,0.50
2018-01-08T12:08:36.982Z,0.60
2018-01-08T12:11:13.417Z,0.60
2018-01-08T12:13:47.916Z,0.70
2018-01-08T12:16:22.443Z,0.70
2018-01-08T12:18:56.954Z,0.80
2018-01-08T12:21:31.043Z,0.80
2018-01-08T12:24:05.425Z,0.80
2018-01-08T12:26:39.101Z,0.90
2018-01-08T12:29:15.925Z,1.00
2018-01-08T12:31:51.217Z,1.00
2018-01-08T12:34:25.834Z,1.00
2018-01-08T12:37:00.352Z,1.00
2018-01-08T12:39:34.452Z,1.00
2018-01-08T12:42:08.898Z,1.10
2018-01-08T12:44:43.321Z,1.10
2018-01-08T12:47:17.104Z,1.10
2018-01-08T12:49:51.621Z,1.10
2018-01-08T12:52:26.150Z,1.10
2018-01-08T12:55:01.350Z,1.20
2018-01-08T12:57:34.901Z,1.10
2018-01-08T13:00:09.336Z,1.20
2018-01-08T13:02:44.126Z,1.20
2018-01-08T13:05:18.272Z,1.20
2018-01-08T13:07:52.546Z,1.30
2018-01-08T13:10:26.935Z,2.10
2018-01-08T13:13:00.944Z,2.00
2018-01-08T13:15:36.592Z,2.60
2018-01-08T13:18:10.118Z,3.10
2018-01-08T13:20:43.767Z,3.50
2018-01-08T13:23:18.364Z,3.90
2018-01-08T13:25:52.013Z,4.10
2018-01-08T13:28:26.264Z,4.40
2018-01-08T13:30:59.952Z,4.60
2018-01-08T13:33:33.750Z,4.70
2018-01-08T13:36:07.501Z,4.90
2018-01-08T13:38:42.120Z,5.30
2018-01-08T13:41:15.694Z,5.10
2018-01-08T13:43:50.148Z,4.30
2018-01-08T13:46:23.763Z,4.30
2018-01-08T13:48:58.188Z,3.00
2018-01-08T13:51:33.729Z,2.60
2018-01-08T13:54:08.953Z,2.20
2018-01-08T13:56:42.526Z,2.20
2018-01-08T13:59:16.986Z,2.00
2018-01-08T14:01:50.587Z,2.00
2018-01-08T14:04:25.056Z,2.00
2018-01-08T14:06:58.823Z,2.20
2018-01-08T14:09:32.531Z,2.90
2018-01-08T14:12:06.118Z,3.30
2018-01-08T14:14:39.863Z,3.70
2018-01-08T14:17:13.633Z,3.80
2018-01-08T14:19:47.264Z,3.70
2018-01-08T14:22:27.076Z,3.40
2018-01-08T14:25:00.696Z,3.20
2018-01-08T14:27:34.409Z,3.10
2018-01-08T14:30:08.923Z,3.40
2018-01-08T14:32:42.689Z,3.40
2018-01-08T14:35:17.252Z,3.50
2018-01-08T14:37:50.871Z,3.50
2018-01-08T14:40:25.862Z,3.20
2018-01-08T14:42:59.740Z,2.80
2018-01-08T14:45:34.496Z,2.50
2018-01-08T14:48:08.335Z,2.20
2018-01-08T14:50:41.932Z,2.00
2018-01-08T14:53:17.313Z,2.50
2018-01-08T14:55:51.099Z,2.50
2018-01-08T14:58:25.576Z,2.20
2018-01-08T15:00:59.169Z,2.00
2018-01-08T15:03:36.464Z,1.80
2018-01-08T15:06:11.652Z,1.60
2018-01-08T15:08:45.358Z,1.40
2018-01-08T15:11:18.918Z,1.30
2018-01-08T15:13:52.697Z,1.20
2018-01-08T15:16:26.263Z,1.10
2018-01-08T15:18:59.859Z,1.10
2018-01-08T15:21:33.625Z,1.00
2018-01-08T15:24:07.368Z,1.00
2018-01-08T15:26:41.921Z,0.90
2018-01-08T15:29:15.557Z,0.90
2018-01-08T15:31:49.345Z,0.90
2018-01-08T15:34:23.056Z,0.90
2018-01-08T15:36:56.783Z,0.80
2018-01-08T15:39:30.523Z,0.70
2018-01-08T15:42:04.076Z,0.70
2018-01-08T15:44:38.498Z,0.70
2018-01-08T15:47:12.138Z,0.60
2018-01-08T15:49:45.888Z,0.60
2018-01-08T15:52:21.097Z,0.60
2018-01-08T15:54:56.013Z,0.60
2018-01-08T15:57:29.897Z,0.50
2018-01-08T16:00:03.592Z,0.50
2018-01-08T16:02:37.316Z,0.50
2018-01-08T16:05:11.032Z,0.50
2018-01-08T16:07:45.112Z,0.50
2018-01-08T16:10:19.278Z,0.50
2018-01-08T16:12:53.851Z,0.50
2018-01-08T16:15:28.315Z,0.40
2018-01-08T16:18:02.342Z,0.50
2018-01-08T16:20:35.994Z,0.40
2018-01-08T16:23:09.628Z,0.40
2018-01-08T16:25:43.324Z,0.40
2018-01-08T16:28:17.820Z,0.40
2018-01-08T16:30:52.401Z,0.40
2018-01-08T16:33:26.873Z,0.40
2018-01-08T16:36:00.452Z,0.30
2018-01-08T16:38:34.104Z,0.40
2018-01-08T16:41:07.816Z,0.30
2018-01-08T16:43:42.864Z,0.30
2018-01-08T16:46:16.683Z,0.30
2018-01-08T16:48:50.373Z,0.30
2018-01-08T16:51:24.166Z,0.20
2018-01-08T16:53:57.992Z,0.20
2018-01-08T16:56:31.555Z,0.20
2018-01-08T16:59:05.189Z,0.20
2018-01-08T17:01:38.792Z,0.20
2018-01-08T17:04:12.532Z,0.10
2018-01-08T17:06:46.857Z,0.10
2018-01-08T17:09:20.564Z,0.10
2018-01-08T17:11:54.885Z,0.10
2018-01-08T17:14:29.175Z,0.10
2018-01-08T17:17:03.455Z,0.10
2018-01-08T17:19:38.140Z,0.10
2018-01-08T17:22:11.777Z,0.00
2018-01-08T17:24:45.534Z,0.00
2018-01-08T17:27:19.258Z,0.00
2018-01-08T17:29:53.139Z,0.00
2018-01-08T17:35:08.236Z,0.00
2018-01-08T17:37:41.936Z,0.00
2018-01-08T17:40:16.532Z,0.00
2018-01-08T17:42:50.080Z,0.00
2018-01-08T17:45:23.839Z,0.00
2018-01-08T17:47:57.605Z,0.00
2018-01-08T17:50:31.245Z,0.00
2018-01-08T17:53:04.897Z,0.00
2018-01-08T17:55:38.624Z,0.00
2018-01-08T17:58:12.331Z,0.00
2018-01-08T18:00:46.109Z,-0.10
2018-01-08T18:03:20.350Z,-0.10
2018-01-08T18:05:54.043Z,-0.10
2018-01-08T18:08:28.465Z,-0.10
2018-01-08T18:11:02.053Z,0.00
2018-01-08T18:13:35.777Z,-0.10
2018-01-08T18:16:09.537Z,-0.10
2018-01-08T18:18:43.173Z,-0.10
2018-01-08T18:21:16.924Z,-0.10
2018-01-08T18:23:50.667Z,-0.10
2018-01-08T18:26:24.354Z,-0.10
2018-01-08T18:28:58.813Z,-0.10
2018-01-08T18:31:32.609Z,-0.10
2018-01-08T18:34:06.300Z,-0.20
2018-01-08T18:36:39.896Z,-0.20
2018-01-08T18:39:13.440Z,-0.20
2018-01-08T18:41:47.217Z,-0.20
2018-01-08T18:44:20.805Z,-0.20
2018-01-08T18:46:54.509Z,-0.30
2018-01-08T18:49:28.240Z,-0.40
2018-01-08T18:52:02.752Z,-0.30
2018-01-08T18:54:36.402Z,-0.40
2018-01-08T18:57:10.072Z,-0.40
2018-01-08T18:59:43.705Z,-0.40
2018-01-08T19:02:17.478Z,-0.40
2018-01-08T19:04:51.256Z,-0.40
2018-01-08T19:07:25.792Z,-0.50
2018-01-08T19:09:59.500Z,-0.50
2018-01-08T19:12:33.396Z,-0.50
2018-01-08T19:15:07.888Z,-0.50
2018-01-08T19:17:41.573Z,-0.50
2018-01-08T19:20:15.295Z,-0.50
2018-01-08T19:22:49.072Z,-0.40
2018-01-08T19:25:22.785Z,-0.50
2018-01-08T19:27:56.472Z,-0.50
2018-01-08T19:30:30.130Z,-0.50
2018-01-08T19:33:03.879Z,-0.50
2018-01-08T19:35:37.712Z,-0.40
2018-01-08T19:38:12.182Z,-0.40
2018-01-08T19:40:45.816Z,-0.40
2018-01-08T19:43:20.399Z,-0.50
2018-01-08T19:45:54.070Z,-0.50
2018-01-08T19:48:28.633Z,-0.50
2018-01-08T19:51:02.264Z,-0.50
2018-01-08T19:53:36.037Z,-0.50
2018-01-08T19:56:10.570Z,-0.50
2018-01-08T19:58:44.267Z,-0.50
2018-01-08T20:01:18.073Z,-0.50
2018-01-08T20:03:54.112Z,-0.50
2018-01-08T20:06:27.660Z,-0.50
2018-01-08T20:09:01.362Z,-0.50
2018-01-08T20:11:35.717Z,-0.50
2018-01-08T20:14:09.389Z,-0.50
2018-01-08T20:16:43.184Z,-0.40
2018-01-08T20:19:16.896Z,-0.40
2018-01-08T20:21:50.652Z,-0.40
2018-01-08T20:24:24.428Z,-0.40
2018-01-08T20:26:58.125Z,-0.40
2018-01-08T20:29:31.712Z,-0.40
2018-01-08T20:32:05.349Z,-0.40
2018-01-08T20:34:39.106Z,-0.40
2018-01-08T20:37:12.671Z,-0.40
2018-01-08T20:39:46.298Z,-0.40
2018-01-08T20:42:20.000Z,-0.40
2018-01-08T20:44:53.800Z,-0.50
2018-01-08T20:47:27.479Z,-0.50
2018-01-08T20:50:01.185Z,-0.50
2018-01-08T20:52:34.954Z,-0.50
2018-01-08T20:55:08.693Z,-0.60
2018-01-08T20:57:43.672Z,-0.60
2018-01-08T21:00:17.284Z,-0.60
2018-01-08T21:02:51.025Z,-0.50
2018-01-08T21:05:24.815Z,-0.50
2018-01-08T21:07:58.573Z,-0.50
2018-01-08T21:10:33.188Z,-0.50
2018-01-08T21:13:07.830Z,-0.50
2018-01-08T21:15:41.468Z,-0.40
2018-01-08T21:18:15.087Z,-0.50
2018-01-08T21:20:48.659Z,-0.50
2018-01-08T21:23:22.400Z,-0.50
2018-01-08T21:25:56.197Z,-0.50
2018-01-08T21:28:29.960Z,-0.40
2018-01-08T21:31:04.996Z,-0.40
2018-01-08T21:33:40.207Z,-0.40
2018-01-08T21:36:14.744Z,-0.40
2018-01-08T21:38:48.420Z,-0.40
2018-01-08T21:41:23.794Z,-0.40
2018-01-08T21:43:57.487Z,-0.40
2018-01-08T21:46:32.203Z,-0.40
2018-01-08T21:49:05.895Z,-0.40
2018-01-08T21:51:39.604Z,-0.40
2018-01-08T21:54:13.361Z,-0.40
2018-01-08T21:56:47.122Z,-0.50
2018-01-08T21:59:20.741Z,-0.40
2018-01-08T22:01:56.265Z,-0.40
2018-01-08T22:04:30.702Z,-0.40
2018-01-08T22:07:04.472Z,-0.40
2018-01-08T22:09:39.080Z,-0.40
2018-01-08T22:12:12.787Z,-0.40
2018-01-08T22:14:46.452Z,-0.40
2018-01-08T22:17:20.248Z,-0.40
2018-01-08T22:19:54.083Z,-0.40
2018-01-08T22:22:28.683Z,-0.50
2018-01-08T22:25:02.556Z,-0.50
2018-01-08T22:27:36.193Z,-0.50
2018-01-08T22:30:09.818Z,-0.50
2018-01-08T22:32:43.540Z,-0.50
2018-01-08T22:35:17.514Z,-0.50
2018-01-08T22:37:51.372Z,-0.50
2018-01-08T22:40:27.449Z,-0.60
2018-01-08T22:43:01.084Z,-0.60
2018-01-08T22:45:35.561Z,-0.60
2018-01-08T22:48:09.168Z,-0.60
2018-01-08T22:50:43.317Z,-0.60
2018-01-08T22:53:17.798Z,-0.60
2018-01-08T22:55:52.339Z,-0.60
2018-01-08T22:58:26.858Z,-0.60
2018-01-08T23:01:01.268Z,-0.50
2018-01-08T23:03:35.932Z,-0.60
2018-01-08T23:06:10.305Z,-0.60
2018-01-08T23:08:44.094Z,-0.60
2018-01-08T23:11:18.616Z,-0.60
2018-01-08T23:13:53.120Z,-0.70
2018-01-08T23:16:26.744Z,-0.70
2018-01-08T23:19:00.534Z,-0.70
2018-01-08T23:21:34.326Z,-0.70
2018-01-08T23:24:07.939Z,-0.70
2018-01-08T23:26:42.487Z,-0.70
2018-01-08T23:29:17.013Z,-0.70
2018-01-08T23:31:50.622Z,-0.70
2018-01-08T23:34:25.336Z,-0.70
2018-01-08T23:36:59.048Z,-0.80
2018-01-08T23:39:32.776Z,-0.80
2018-01-08T23:42:07.256Z,-0.80
2018-01-08T23:44:40.981Z,-0.80
2018-01-08T23:47:14.765Z,-0.80
2018-01-08T23:49:48.480Z,-0.80
2018-01-08T23:52:22.999Z,-0.80
2018-01-08T23:54:56.645Z,-0.80
2018-01-08T23:57:30.412Z,-0.80
